Eynsford, United Kingdom
Current Conditions -  °F | °C
As of 11:20 AM on Monday 22 Dec 2014 (Local Time) from EGKB Reporting Station
Broken Clouds Broken Clouds  
Wind Chill: 54°   Ceiling: 2100
Heat Index: 54°   Visibility: 6mi
Dew Point: 45°   Wind: 17mph
Humidity: 72%   Direction: 240°WSW
Pressure: 30.06"   Gusts: 29mph
Location:  51.37°N, 0.21°E
Report Text: EGKB 221120Z 24015G25KT 210V280 9999 BKN021 12/07 Q1018
Loading
Personal Weather Stations






























Interactive Weather Map New forecast layout! Learn more

10-Day Weather Forecast

Advertisements
Track Severe Weather on mobile